createdAt,value
2022-08-02T04:45:07.573Z,2.97
2022-08-02T04:50:10.101Z,3.28
2022-08-02T05:34:25.850Z,4.53
2022-08-02T05:39:31.971Z,4.88
2022-08-02T05:44:33.962Z,5.07
2022-08-02T05:49:36.517Z,5.75
2022-08-02T05:55:02.216Z,5.60
2022-08-02T06:00:11.755Z,5.65
2022-08-02T06:05:29.879Z,5.78
2022-08-02T06:10:33.507Z,5.97
2022-08-02T06:22:34.142Z,5.53
2022-08-02T06:26:38.793Z,6.40
2022-08-02T06:38:04.335Z,7.10
2022-08-02T06:50:54.243Z,8.23
2022-08-02T06:55:56.440Z,8.75
2022-08-02T07:00:58.458Z,7.97
2022-08-02T07:06:00.947Z,7.75
2022-08-02T07:11:04.009Z,7.97
2022-08-02T07:16:08.063Z,7.40
2022-08-02T07:21:12.822Z,7.10
2022-08-02T07:26:14.885Z,6.07
2022-08-02T07:31:16.852Z,5.32
2022-08-02T07:36:22.395Z,4.78
2022-08-02T07:41:24.998Z,4.45
2022-08-02T07:46:27.047Z,4.43
2022-08-02T07:51:31.686Z,4.47
2022-08-02T07:56:33.607Z,5.00
2022-08-02T08:01:35.797Z,4.20
2022-08-02T08:06:42.462Z,4.28
2022-08-02T08:11:44.452Z,3.35
2022-08-02T08:16:46.387Z,2.40
2022-08-02T08:21:48.324Z,2.95
2022-08-02T08:26:50.263Z,2.42
2022-08-02T08:31:53.398Z,2.35
2022-08-02T08:36:55.407Z,2.75
2022-08-02T08:41:57.618Z,2.40
2022-08-02T08:47:03.366Z,2.33
2022-08-02T08:52:07.378Z,2.30
2022-08-02T08:57:21.966Z,1.73
2022-08-02T09:02:28.135Z,2.08
2022-08-02T09:07:30.543Z,2.28
2022-08-02T09:17:34.641Z,1.53
2022-08-02T09:22:36.727Z,1.63
2022-08-02T09:27:40.097Z,1.42
2022-08-02T09:32:47.047Z,1.40
2022-08-02T09:37:49.782Z,1.30
2022-08-02T09:43:00.845Z,1.60
2022-08-02T09:48:12.450Z,1.50
2022-08-02T09:53:14.398Z,1.30
2022-08-02T10:03:33.968Z,1.25
2022-08-02T10:08:39.456Z,1.20
2022-08-02T10:13:42.101Z,2.30
2022-08-02T10:18:44.337Z,1.10
2022-08-02T10:23:49.596Z,1.10
2022-08-02T10:28:52.975Z,0.77
2022-08-02T10:33:59.082Z,0.82
2022-08-02T10:39:02.523Z,0.80
2022-08-02T10:44:04.778Z,0.82
2022-08-02T10:49:29.757Z,1.20
2022-08-02T10:55:14.799Z,1.05
2022-08-02T11:00:24.204Z,1.15
2022-08-02T11:05:42.610Z,0.80
2022-08-02T11:10:45.950Z,1.05
2022-08-02T11:16:10.993Z,1.15
2022-08-02T11:21:29.200Z,1.15
2022-08-02T11:26:31.131Z,1.10
2022-08-02T11:31:43.166Z,1.13
2022-08-02T11:36:48.009Z,1.10
2022-08-02T11:41:57.363Z,1.08
2022-08-02T11:47:03.810Z,1.10
2022-08-02T11:52:08.177Z,1.15
2022-08-02T11:57:20.136Z,1.10
2022-08-02T12:02:28.907Z,1.55
2022-08-02T12:07:37.617Z,1.13
2022-08-02T12:13:00.013Z,1.23
2022-08-02T12:18:21.248Z,1.00
2022-08-02T12:23:24.167Z,0.95
2022-08-02T12:28:26.850Z,0.77
2022-08-02T12:33:54.376Z,1.02
2022-08-02T12:39:03.421Z,1.10
2022-08-02T12:44:05.580Z,0.85
2022-08-02T12:49:19.778Z,0.88
2022-08-02T12:54:40.010Z,0.95
2022-08-02T12:59:45.165Z,0.98
2022-08-02T13:04:49.755Z,1.50
2022-08-02T13:10:02.500Z,1.10
2022-08-02T13:15:12.375Z,0.95
2022-08-02T13:20:29.938Z,0.80
2022-08-02T13:25:31.934Z,1.00
2022-08-02T13:30:34.110Z,1.00
2022-08-02T13:35:36.046Z,1.05
2022-08-02T13:41:04.247Z,1.10
2022-08-02T13:46:06.954Z,1.25
2022-08-02T13:51:12.042Z,1.05
2022-08-02T13:56:17.026Z,1.20
2022-08-02T14:01:19.353Z,1.20
2022-08-02T14:06:24.395Z,1.10
2022-08-02T14:11:26.346Z,1.20
2022-08-02T14:16:33.025Z,1.20
2022-08-02T14:21:46.383Z,1.40
2022-08-02T14:26:51.080Z,1.45
2022-08-02T14:31:53.045Z,1.08
2022-08-02T14:36:56.915Z,1.23
2022-08-02T14:42:00.857Z,1.13
2022-08-02T14:47:03.125Z,1.10
2022-08-02T14:52:05.474Z,1.13
2022-08-02T14:57:07.734Z,1.20
2022-08-02T15:02:13.069Z,1.20
2022-08-02T15:07:15.737Z,1.20
2022-08-02T15:12:18.409Z,1.10
2022-08-02T15:17:20.525Z,1.17
2022-08-02T15:22:22.662Z,1.17
2022-08-02T15:27:25.029Z,1.10
2022-08-02T15:32:27.300Z,1.17
2022-08-02T15:37:30.840Z,1.20
2022-08-02T15:42:33.148Z,1.20
2022-08-02T15:47:35.534Z,1.30
2022-08-02T15:52:37.612Z,1.50
2022-08-02T15:57:39.674Z,1.38
2022-08-02T16:02:43.282Z,1.27
2022-08-02T16:07:46.251Z,1.30
2022-08-02T16:12:48.277Z,1.27
2022-08-02T16:17:53.969Z,1.70
2022-08-02T16:22:56.788Z,1.48
2022-08-02T16:28:07.706Z,1.23
2022-08-02T16:33:10.299Z,1.42
2022-08-02T16:38:12.346Z,1.65
2022-08-02T16:43:14.280Z,1.73
2022-08-02T16:48:16.335Z,1.45
2022-08-02T16:53:36.748Z,1.45
2022-08-02T16:58:39.500Z,1.42
2022-08-02T17:03:56.863Z,1.60
2022-08-02T17:08:59.534Z,1.45
2022-08-02T17:14:01.512Z,1.38
2022-08-02T17:19:04.044Z,1.02
2022-08-02T17:24:08.636Z,1.40
2022-08-02T17:29:15.837Z,1.30
2022-08-02T17:34:26.905Z,1.75
2022-08-02T17:39:33.874Z,1.67
2022-08-02T17:44:39.240Z,1.42
2022-08-02T17:49:43.928Z,1.30
2022-08-02T17:54:51.008Z,1.58
2022-08-02T18:00:03.932Z,1.40
2022-08-02T18:05:11.844Z,1.52
2022-08-02T18:10:17.557Z,1.20
2022-08-02T18:15:20.557Z,1.40
2022-08-02T18:20:23.194Z,1.58
2022-08-02T18:25:36.929Z,1.60
2022-08-02T18:30:51.237Z,1.73
2022-08-02T18:35:55.319Z,1.60
2022-08-02T18:41:02.351Z,1.65
2022-08-02T18:51:36.751Z,1.38
2022-08-02T18:56:47.460Z,1.75
2022-08-02T19:01:52.804Z,1.57
2022-08-02T19:06:55.812Z,2.00
2022-08-02T19:11:58.007Z,1.60
2022-08-02T19:17:15.753Z,2.22
2022-08-02T19:22:23.781Z,1.73
2022-08-02T19:27:32.484Z,1.98
2022-08-02T19:32:39.974Z,1.70
2022-08-02T19:37:50.120Z,2.28
2022-08-02T19:44:20.956Z,2.38
2022-08-02T19:48:24.352Z,2.45
2022-08-02T19:53:29.245Z,2.28
2022-08-02T19:58:51.240Z,2.30
2022-08-02T22:58:59.905Z,1.60
